Aérodrome :
LOGIN :

S'inscrire | Disclaimer

   EN    FR    IT 

 










Légende :    VFR   VFR Marginal   IFR   IFR Intensif   IFR Très Intensif
Visi : 
Plafond : 
>= 8 km
>= 3000ft
5 à 8 km
1000 à 3000 ft
1500m à 5 km
500 à 1000 ft
800 à 1500m
200 à 500 ft
< 800m
< 200 ft
Symboles :   Orages  Brouillard  Fortes neiges  Fortes précipitations  Vent > 20 kt
SIGMETs :   Divers  Orages  Givrage  Turbulence  Onde Orograph.  Cendres Volcan.







- Altitude de l'aérodrome : 238 ft
- Code IATA : FAB
- Voir les cartes d'approche


EGLF - Farnborough

DERNIER METAR :
  • 211050Z AUTO 08009KT 060V120 9999 NCD 21/10 Q1012

METARs EXPIRÉS :
  • 211020Z AUTO 09009KT 060V120 9999 NCD 20/09 Q1012
  • 210950Z AUTO 09009KT 9999 NCD 19/09 Q1013
  • 210920Z AUTO 11007KT 070V140 9999 NCD 17/09 Q1013
  • 210850Z AUTO 10009KT 9999 NCD 16/09 Q1013
  • 210820Z AUTO 09008KT 9999 NCD 15/08 Q1013

TAF TAF EGLF
Valide du 21 à 09h jusqu'au 21 à 18h UTC


210758Z 2109/2118 10009KT CAVOK
ATIS : +44 09063 800 400 (*282)
Pas de NOTAMs connus pour ce terrain.



MET'MAP, la Météo Aéronautique d'un coup d'oeil ! - Copyright ORBIFLY Décembre 2007 - Disclaimer

ORBIFLY MET'MAP TEAM :

Programmation & Développement : Alexandra Zaïnal
Conception & Développement : Baudouin d'Aumeries
Co-Programmation & Développement : Marc-Olivier Méhu
Soutien technique & logistique : Manuel Goepfert

Contact : metmap@orbifly.com




SOURCES & CREDITS :

   NOAA